»·PEaware :: SNIPER91 KLSV-KLSV

SNIPER91 :: KLSV-KLSV

FLIGHT INFORMATION

Flight Status: Arrived
Operator: Unknown
More flights by this operator :: More flights under this callsign
Pilot: Anthony C. (15741)
Aircraft: NORTHROP F-5 FREEDON FIGHTER
(F5)
More flights by this aircraft type
Origin: KLSV Nellis AFB
United States
Destination: KLSV Nellis AFB
United States
More flights between these airports :: More routes between these airports
Route: +DREAM4 JUNNO
File this flight plan on PilotEdge
Remarks: UNRIST CLIMB 17,000, CLNC LIMIT JUUNO
Altitude:
(Current/Filed)
17,000ft
Speed:
(Current/Filed)
350kts
Departed: 25-Jun-17 09:48 PM
Arrived: 25-Jun-17 10:27 PM
Distance/Time
Traveled:
1nm/0:39
Distance/Time
To Go:
Arrived

Flight Plot

Page will automatically refresh every two minutes.

Flight plan parsing failed; only flown route is shown


Map Options




Map Legend


Flown Route
Filed Route
Departure Airport
Arrival Airport
Navaid (VOR, NDB)
Fix

Horizontal Profiles

Position Reports

Time Latitude Longitude Heading Altitude Ground
Speed
25-Jun-17 21:35 36.232358 -115.022535 95 1849ft 0kts
25-Jun-17 21:36 36.232358 -115.022535 95 1849ft 0kts
25-Jun-17 21:37 36.232358 -115.022535 95 1849ft 0kts
25-Jun-17 21:38 36.232358 -115.022535 95 1849ft 0kts
25-Jun-17 21:39 36.232358 -115.022535 95 1849ft 0kts
25-Jun-17 21:40 36.232358 -115.022535 95 1849ft 0kts
25-Jun-17 21:41 36.232358 -115.022535 95 1849ft 0kts
25-Jun-17 21:42 36.232358 -115.022535 95 1849ft 0kts
25-Jun-17 21:43 36.232358 -115.022535 95 1849ft 0kts
25-Jun-17 21:44 36.231302 -115.024195 241 1849ft 0kts
25-Jun-17 21:45 36.230658 -115.027471 270 1848ft 18kts
25-Jun-17 21:46 36.228626 -115.033946 220 1847ft 21kts
25-Jun-17 21:47 36.223269 -115.039736 220 1846ft 21kts
25-Jun-17 21:48 36.224327 -115.043243 322 1846ft 0kts
25-Jun-17 21:49 36.224327 -115.043243 322 1846ft 0kts
25-Jun-17 21:50 36.225570 -115.043458 41 1846ft 0kts
25-Jun-17 21:51 36.256496 -115.009058 41 2517ft 283kts
25-Jun-17 21:52 36.319276 -114.929073 46 6338ft 312kts
25-Jun-17 21:53 36.391610 -114.886121 349 9180ft 331kts
25-Jun-17 21:54 36.491172 -114.906940 348 15099ft 378kts
25-Jun-17 21:55 36.608829 -114.931642 350 17526ft 460kts
25-Jun-17 21:56 36.737840 -114.957519 347 16747ft 472kts
25-Jun-17 21:57 36.865690 -114.990313 344 16752ft 462kts
25-Jun-17 21:58 36.961588 -115.079278 287 14620ft 492kts
25-Jun-17 21:59 37.010939 -115.233855 329 14527ft 460kts
25-Jun-17 22:00 37.125532 -115.267173 281 14190ft 428kts
25-Jun-17 22:01 37.025027 -115.275848 168 10286ft 457kts
25-Jun-17 22:02 36.950296 -115.206763 39 10695ft 420kts
25-Jun-17 22:03 37.030101 -115.230856 291 11489ft 432kts
25-Jun-17 22:04 37.015570 -115.389296 127 13555ft 357kts
25-Jun-17 22:05 37.079716 -115.388078 343 6497ft 239kts
25-Jun-17 22:06 37.160908 -115.425289 335 6615ft 322kts
25-Jun-17 22:07 37.184184 -115.420918 207 4728ft 379kts
25-Jun-17 22:08 37.127915 -115.488031 106 6131ft 443kts
25-Jun-17 22:09 37.134611 -115.319042 74 4390ft 525kts
25-Jun-17 22:10 37.057434 -115.236410 129 4224ft 517kts
25-Jun-17 22:11 37.025529 -115.201068 20 3916ft 411kts
25-Jun-17 22:12 37.038259 -115.195318 181 3355ft 351kts
25-Jun-17 22:13 37.019472 -115.172652 349 3685ft 418kts
25-Jun-17 22:14 37.050573 -115.150296 7 5879ft 285kts
25-Jun-17 22:15 36.980798 -115.131577 134 8713ft 455kts
25-Jun-17 22:16 36.893417 -115.062320 166 11558ft 497kts
25-Jun-17 22:17 36.749826 -115.022328 166 12893ft 547kts
25-Jun-17 22:18 36.601444 -114.963139 160 12417ft 562kts
25-Jun-17 22:19 36.451991 -114.906169 162 11825ft 569kts
25-Jun-17 22:20 36.316943 -114.948795 220 4931ft 498kts
25-Jun-17 22:21 36.249544 -115.045588 12 3085ft 283kts
25-Jun-17 22:22 36.242667 -115.029479 219 1871ft 296kts
25-Jun-17 22:23 36.262165 -115.030446 34 4084ft 257kts
25-Jun-17 22:24 36.221740 -115.054367 285 3405ft 291kts
25-Jun-17 22:25 36.250569 -115.039898 295 8183ft 315kts
25-Jun-17 22:26 36.242046 -115.030118 220 1868ft 341kts
25-Jun-17 22:27 36.243696 -115.000525 350 3391ft 232kts
25-Jun-17 22:28 36.222531 -115.025915 38 3755ft 283kts
25-Jun-17 22:29 36.239243 -115.028612 219 1850ft 78kts
25-Jun-17 22:30 36.231894 -115.034984 130 1847ft 19kts
25-Jun-17 22:31 36.230669 -115.028017 90 1848ft 26kts
25-Jun-17 22:32 36.232152 -115.023063 94 1849ft 0kts

Navigation Log

Ident Type
Flight plan parsing failed, navigation log unavailable